createdAt,value
2016-09-07T00:00:36.820Z,1018.09
2016-09-07T00:01:36.806Z,1018.06
2016-09-07T00:02:36.788Z,1018.1
2016-09-07T00:03:36.780Z,1018.03
2016-09-07T00:04:36.761Z,1018.06
2016-09-07T00:05:36.755Z,1018.03
2016-09-07T00:06:36.738Z,1018.04
2016-09-07T00:07:36.728Z,1018.03
2016-09-07T00:08:36.711Z,1018.01
2016-09-07T00:09:36.699Z,1018.02
2016-09-07T00:10:36.691Z,1018.02
2016-09-07T00:11:36.672Z,1018
2016-09-07T00:12:36.670Z,1018
2016-09-07T00:13:36.650Z,1018.01
2016-09-07T00:14:36.632Z,1018
2016-09-07T00:15:36.620Z,1017.98
2016-09-07T00:16:36.611Z,1017.98
2016-09-07T00:17:36.591Z,1017.97
2016-09-07T00:18:36.581Z,1017.99
2016-09-07T00:19:36.566Z,1018
2016-09-07T00:20:36.605Z,1018.01
2016-09-07T00:21:36.543Z,1017.99
2016-09-07T00:22:36.530Z,1017.99
2016-09-07T00:23:36.521Z,1018
2016-09-07T00:24:36.505Z,1017.97
2016-09-07T00:25:36.488Z,1017.94
2016-09-07T00:26:36.478Z,1017.95
2016-09-07T00:27:36.469Z,1017.95
2016-09-07T00:28:36.450Z,1017.9
2016-09-07T00:29:36.440Z,1017.88
2016-09-07T00:30:36.424Z,1017.9
2016-09-07T00:31:36.421Z,1017.92
2016-09-07T00:32:36.400Z,1017.91
2016-09-07T00:33:36.388Z,1017.92
2016-09-07T00:34:36.370Z,1017.91
2016-09-07T00:35:36.361Z,1017.88
2016-09-07T00:36:36.350Z,1017.87
2016-09-07T00:37:36.331Z,1017.89
2016-09-07T00:38:36.320Z,1017.89
2016-09-07T00:39:36.308Z,1017.84
2016-09-07T00:40:36.292Z,1017.87
2016-09-07T00:41:36.279Z,1017.84
2016-09-07T00:42:36.268Z,1017.82
2016-09-07T00:43:36.262Z,1017.78
2016-09-07T00:44:36.241Z,1017.78
2016-09-07T00:45:36.226Z,1017.79
2016-09-07T00:46:36.211Z,1017.79
2016-09-07T00:47:36.200Z,1017.76
2016-09-07T00:48:36.189Z,1017.71
2016-09-07T00:49:36.175Z,1017.75
2016-09-07T00:50:36.165Z,1017.72
2016-09-07T00:51:36.150Z,1017.74
2016-09-07T00:52:36.132Z,1017.73
2016-09-07T00:53:36.120Z,1017.72
2016-09-07T00:54:36.100Z,1017.74
2016-09-07T00:55:36.100Z,1017.75
2016-09-07T00:56:36.083Z,1017.74
2016-09-07T00:57:36.067Z,1017.7
2016-09-07T00:58:36.047Z,1017.69
2016-09-07T00:59:36.038Z,1017.68
2016-09-07T01:00:36.026Z,1017.71
2016-09-07T01:01:36.011Z,1017.69
2016-09-07T01:02:36.000Z,1017.7
2016-09-07T01:03:35.985Z,1017.69
2016-09-07T01:04:35.969Z,1017.7
2016-09-07T01:05:35.956Z,1017.69
2016-09-07T01:06:35.942Z,1017.72
2016-09-07T01:07:35.938Z,1017.69
2016-09-07T01:08:35.920Z,1017.69
2016-09-07T01:09:35.904Z,1017.68
2016-09-07T01:10:35.889Z,1017.69
2016-09-07T01:11:35.881Z,1017.7
2016-09-07T01:12:35.872Z,1017.72
2016-09-07T01:13:35.847Z,1017.68
2016-09-07T01:14:35.841Z,1017.72
2016-09-07T01:15:35.830Z,1017.69
2016-09-07T01:16:35.810Z,1017.74
2016-09-07T01:17:35.801Z,1017.68
2016-09-07T01:18:35.782Z,1017.71
2016-09-07T01:19:35.781Z,1017.69
2016-09-07T01:20:35.757Z,1017.69
2016-09-07T01:21:35.743Z,1017.7
2016-09-07T01:22:35.730Z,1017.65
2016-09-07T01:23:35.718Z,1017.67
2016-09-07T01:24:35.697Z,1017.68
2016-09-07T01:25:35.690Z,1017.68
2016-09-07T01:26:35.670Z,1017.73
2016-09-07T01:27:35.681Z,1017.73
2016-09-07T01:28:35.656Z,1017.74
2016-09-07T01:29:35.631Z,1017.72
2016-09-07T01:30:35.635Z,1017.71
2016-09-07T01:31:35.602Z,1017.69
2016-09-07T01:32:35.588Z,1017.65
2016-09-07T01:33:35.582Z,1017.67
2016-09-07T01:34:35.564Z,1017.64
2016-09-07T01:35:35.553Z,1017.65
2016-09-07T01:36:35.533Z,1017.64
2016-09-07T01:37:35.532Z,1017.62
2016-09-07T01:38:35.506Z,1017.62
2016-09-07T01:39:35.493Z,1017.63
2016-09-07T01:40:35.480Z,1017.62
2016-09-07T01:41:35.472Z,1017.66
2016-09-07T01:42:35.450Z,1017.65
2016-09-07T01:43:35.441Z,1017.66
2016-09-07T01:44:35.429Z,1017.64
2016-09-07T01:45:35.409Z,1017.63
2016-09-07T01:46:35.396Z,1017.68
2016-09-07T01:47:35.392Z,1017.67
2016-09-07T01:48:35.371Z,1017.67
2016-09-07T01:49:35.361Z,1017.64
2016-09-07T01:50:35.340Z,1017.65
2016-09-07T01:51:35.341Z,1017.65
2016-09-07T01:52:35.321Z,1017.62
2016-09-07T01:53:35.303Z,1017.57
2016-09-07T01:54:35.288Z,1017.61
2016-09-07T01:55:35.271Z,1017.61
2016-09-07T01:56:35.255Z,1017.6
2016-09-07T01:57:35.247Z,1017.62
2016-09-07T01:58:35.234Z,1017.57
2016-09-07T01:59:35.216Z,1017.56
2016-09-07T02:00:35.203Z,1017.55
2016-09-07T02:01:35.191Z,1017.49
2016-09-07T02:02:35.182Z,1017.56
2016-09-07T02:03:35.160Z,1017.55
2016-09-07T02:04:35.149Z,1017.55
2016-09-07T02:05:35.129Z,1017.54
2016-09-07T02:06:35.119Z,1017.49
2016-09-07T02:07:35.108Z,1017.49
2016-09-07T02:08:35.093Z,1017.48
2016-09-07T02:09:35.075Z,1017.5
2016-09-07T02:10:35.062Z,1017.46
2016-09-07T02:11:35.051Z,1017.48
2016-09-07T02:12:35.037Z,1017.45
2016-09-07T02:13:35.022Z,1017.43
2016-09-07T02:14:35.005Z,1017.45
2016-09-07T02:15:34.989Z,1017.46
2016-09-07T02:16:34.981Z,1017.46
2016-09-07T02:17:34.969Z,1017.47
2016-09-07T02:18:34.952Z,1017.51
2016-09-07T02:19:34.941Z,1017.48
2016-09-07T02:20:34.921Z,1017.5
2016-09-07T02:21:34.911Z,1017.49
2016-09-07T02:22:34.900Z,1017.46
2016-09-07T02:23:34.880Z,1017.48
2016-09-07T02:24:34.866Z,1017.48
2016-09-07T02:25:34.852Z,1017.49
2016-09-07T02:26:34.837Z,1017.46
2016-09-07T02:27:34.827Z,1017.48
2016-09-07T02:28:34.811Z,1017.47
2016-09-07T02:29:34.800Z,1017.46
2016-09-07T02:30:34.778Z,1017.41
2016-09-07T02:31:34.774Z,1017.39
2016-09-07T02:32:34.756Z,1017.37
2016-09-07T02:33:34.743Z,1017.37
2016-09-07T02:34:34.729Z,1017.39
2016-09-07T02:35:34.710Z,1017.38
2016-09-07T02:36:34.700Z,1017.35
2016-09-07T02:37:34.689Z,1017.33
2016-09-07T02:38:34.670Z,1017.38
2016-09-07T02:39:34.654Z,1017.37
2016-09-07T02:40:34.642Z,1017.33
2016-09-07T02:41:34.626Z,1017.36
2016-09-07T02:42:34.613Z,1017.38
2016-09-07T02:43:34.598Z,1017.37
2016-09-07T02:44:34.583Z,1017.4
2016-09-07T02:45:34.571Z,1017.37
2016-09-07T02:46:34.564Z,1017.34
2016-09-07T02:47:34.551Z,1017.33
2016-09-07T02:48:34.531Z,1017.35
2016-09-07T02:49:34.521Z,1017.31
2016-09-07T02:50:34.510Z,1017.35
2016-09-07T02:51:34.490Z,1017.39
2016-09-07T02:52:34.480Z,1017.41
2016-09-07T02:53:34.462Z,1017.39
2016-09-07T02:54:34.453Z,1017.38
2016-09-07T02:55:34.431Z,1017.34
2016-09-07T02:56:34.418Z,1017.35
2016-09-07T02:57:34.400Z,1017.33
2016-09-07T02:58:34.387Z,1017.35
2016-09-07T02:59:34.379Z,1017.35
2016-09-07T03:00:34.359Z,1017.37
2016-09-07T03:01:34.348Z,1017.37
2016-09-07T03:02:34.336Z,1017.35
2016-09-07T03:03:34.316Z,1017.35
2016-09-07T03:04:34.311Z,1017.29
2016-09-07T03:05:34.291Z,1017.28
2016-09-07T03:06:34.275Z,1017.26
2016-09-07T03:07:34.260Z,1017.25
2016-09-07T03:08:34.302Z,1017.27
2016-09-07T03:09:34.230Z,1017.25
2016-09-07T03:10:34.219Z,1017.27
2016-09-07T03:11:34.215Z,1017.26
2016-09-07T03:12:34.188Z,1017.26
2016-09-07T03:13:34.182Z,1017.27
2016-09-07T03:14:34.158Z,1017.26
2016-09-07T03:15:34.151Z,1017.29
2016-09-07T03:16:34.130Z,1017.31
2016-09-07T03:17:34.122Z,1017.32
2016-09-07T03:18:34.105Z,1017.3
2016-09-07T03:19:34.088Z,1017.27
2016-09-07T03:20:34.079Z,1017.25
2016-09-07T03:21:34.057Z,1017.26
2016-09-07T03:22:34.047Z,1017.2
2016-09-07T03:23:34.028Z,1017.19
2016-09-07T03:24:34.020Z,1017.22
2016-09-07T03:25:33.999Z,1017.19
2016-09-07T03:26:33.987Z,1017.23
2016-09-07T03:27:33.971Z,1017.24
2016-09-07T03:28:33.962Z,1017.23
2016-09-07T03:29:33.948Z,1017.24
2016-09-07T03:30:33.931Z,1017.23
2016-09-07T03:31:33.921Z,1017.22
2016-09-07T03:32:33.902Z,1017.22
2016-09-07T03:33:33.886Z,1017.22
2016-09-07T03:34:33.876Z,1017.19
2016-09-07T03:35:33.858Z,1017.18
2016-09-07T03:36:33.843Z,1017.19
2016-09-07T03:37:33.830Z,1017.15
2016-09-07T03:38:33.814Z,1017.18
2016-09-07T03:39:33.801Z,1017.14
2016-09-07T03:40:33.785Z,1017.11
2016-09-07T03:41:33.771Z,1017.14
2016-09-07T03:42:33.760Z,1017.14
2016-09-07T03:43:33.748Z,1017.13
2016-09-07T03:44:33.731Z,1017.14
2016-09-07T03:45:33.712Z,1017.15
2016-09-07T03:46:33.698Z,1017.16
2016-09-07T03:47:33.680Z,1017.12
2016-09-07T03:48:33.668Z,1017.11
2016-09-07T03:49:33.657Z,1017.07
2016-09-07T03:50:33.651Z,1017.06
2016-09-07T03:51:33.622Z,1017.07
2016-09-07T03:52:33.610Z,1017.04
2016-09-07T03:53:33.601Z,1017.02
2016-09-07T03:54:33.583Z,1017.01
2016-09-07T03:55:33.567Z,1017.01
2016-09-07T03:56:33.554Z,1017.01
2016-09-07T03:57:33.538Z,1017.01
2016-09-07T03:58:33.527Z,1016.99
2016-09-07T03:59:33.510Z,1016.99
2016-09-07T04:00:33.501Z,1016.95
2016-09-07T04:01:33.489Z,1016.96
2016-09-07T04:02:33.466Z,1016.94
2016-09-07T04:03:33.453Z,1016.88
2016-09-07T04:04:33.435Z,1016.88
2016-09-07T04:05:33.431Z,1016.88
2016-09-07T04:06:33.407Z,1016.9
2016-09-07T04:07:33.397Z,1016.91
2016-09-07T04:08:33.381Z,1016.88
2016-09-07T04:09:33.371Z,1016.88
2016-09-07T04:10:33.351Z,1016.84
2016-09-07T04:11:33.332Z,1016.83
2016-09-07T04:12:33.318Z,1016.85
2016-09-07T04:13:33.309Z,1016.82
2016-09-07T04:14:33.288Z,1016.81
2016-09-07T04:15:33.277Z,1016.82
2016-09-07T04:16:33.257Z,1016.85
2016-09-07T04:17:33.247Z,1016.82
2016-09-07T04:18:33.240Z,1016.81
2016-09-07T04:19:33.223Z,1016.83
2016-09-07T04:20:33.208Z,1016.81
2016-09-07T04:21:33.191Z,1016.78
2016-09-07T04:22:33.180Z,1016.82
2016-09-07T04:23:33.160Z,1016.78
2016-09-07T04:24:33.149Z,1016.77
2016-09-07T04:25:33.131Z,1016.78
2016-09-07T04:26:33.117Z,1016.78
2016-09-07T04:27:33.101Z,1016.78
2016-09-07T04:28:33.085Z,1016.75
2016-09-07T04:29:33.068Z,1016.77
2016-09-07T04:30:33.057Z,1016.8
2016-09-07T04:31:33.042Z,1016.8
2016-09-07T04:32:33.031Z,1016.83
2016-09-07T04:33:33.013Z,1016.83
2016-09-07T04:34:33.000Z,1016.78
2016-09-07T04:35:32.981Z,1016.83
2016-09-07T04:36:32.967Z,1016.84
2016-09-07T04:37:32.950Z,1016.85
2016-09-07T04:38:32.937Z,1016.87
2016-09-07T04:39:32.921Z,1016.89
2016-09-07T04:40:32.909Z,1016.91
2016-09-07T04:41:32.893Z,1016.83
2016-09-07T04:42:32.875Z,1016.85
2016-09-07T04:43:32.863Z,1016.84
2016-09-07T04:44:32.849Z,1016.86
2016-09-07T04:45:32.835Z,1016.9
2016-09-07T04:46:32.825Z,1016.9
2016-09-07T04:47:32.811Z,1016.91
2016-09-07T04:48:32.787Z,1016.88
2016-09-07T04:49:32.774Z,1016.91
2016-09-07T04:50:32.759Z,1016.89
2016-09-07T04:51:32.750Z,1016.9
2016-09-07T04:52:32.735Z,1016.89
2016-09-07T04:53:32.716Z,1016.91
2016-09-07T04:54:32.698Z,1016.87
2016-09-07T04:55:32.684Z,1016.89
2016-09-07T04:56:32.677Z,1016.89
2016-09-07T04:57:32.650Z,1016.89
2016-09-07T04:58:32.638Z,1016.9
2016-09-07T04:59:32.623Z,1016.86
2016-09-07T05:00:32.615Z,1016.89
2016-09-07T05:01:32.597Z,1016.87
2016-09-07T05:02:32.580Z,1016.86
2016-09-07T05:03:32.566Z,1016.89
2016-09-07T05:04:32.548Z,1016.91
2016-09-07T05:05:32.533Z,1016.93
2016-09-07T05:06:32.523Z,1016.94
2016-09-07T05:07:32.502Z,1016.96
2016-09-07T05:08:32.492Z,1016.95
2016-09-07T05:09:32.480Z,1016.99
2016-09-07T05:10:32.459Z,1017
2016-09-07T05:11:32.448Z,1017.02
2016-09-07T05:12:32.436Z,1016.98
2016-09-07T05:13:32.418Z,1016.96
2016-09-07T05:14:32.401Z,1016.95
2016-09-07T05:15:32.386Z,1016.99
2016-09-07T05:16:32.373Z,1016.95
2016-09-07T05:17:32.355Z,1016.94
2016-09-07T05:18:32.344Z,1016.94
2016-09-07T05:19:32.333Z,1016.94
2016-09-07T05:20:32.309Z,1016.94
2016-09-07T05:21:32.298Z,1016.95
2016-09-07T05:22:32.283Z,1016.93
2016-09-07T05:23:32.270Z,1016.95
2016-09-07T05:24:32.249Z,1016.92
2016-09-07T05:25:32.237Z,1016.93
2016-09-07T05:26:32.221Z,1016.93
2016-09-07T05:27:32.207Z,1016.93
2016-09-07T05:28:32.192Z,1016.97
2016-09-07T05:29:32.181Z,1016.96
2016-09-07T05:30:32.161Z,1016.93
2016-09-07T05:31:32.146Z,1016.94
2016-09-07T05:32:32.133Z,1016.89
2016-09-07T05:33:32.122Z,1016.92
2016-09-07T05:34:32.102Z,1016.91
2016-09-07T05:35:32.092Z,1016.88
2016-09-07T05:36:32.072Z,1016.89
2016-09-07T05:37:32.057Z,1016.91
2016-09-07T05:38:32.055Z,1016.91
2016-09-07T05:39:32.032Z,1016.88
2016-09-07T05:40:32.012Z,1016.93
2016-09-07T05:41:31.999Z,1016.91
2016-09-07T05:42:31.982Z,1016.88
2016-09-07T05:43:31.966Z,1016.92
2016-09-07T05:44:31.958Z,1016.94
2016-09-07T05:45:31.942Z,1016.97
2016-09-07T05:46:31.921Z,1017
2016-09-07T05:47:31.919Z,1017.01
2016-09-07T05:48:31.893Z,1017
2016-09-07T05:49:31.875Z,1016.98
2016-09-07T05:50:31.860Z,1016.98
2016-09-07T05:51:31.851Z,1016.97
2016-09-07T05:52:31.841Z,1016.96
2016-09-07T05:53:31.818Z,1017.02
2016-09-07T05:54:31.811Z,1016.98
2016-09-07T05:55:31.799Z,1017.03
2016-09-07T05:56:31.773Z,1017.01
2016-09-07T05:57:31.762Z,1017.02
2016-09-07T05:58:31.745Z,1017
2016-09-07T05:59:31.736Z,1017.03
2016-09-07T06:00:31.721Z,1016.95
2016-09-07T06:01:31.699Z,1017
2016-09-07T06:02:31.701Z,1016.98
2016-09-07T06:03:31.673Z,1016.99
2016-09-07T06:04:31.660Z,1016.95
2016-09-07T06:05:31.646Z,1016.95
2016-09-07T06:06:31.631Z,1016.96
2016-09-07T06:07:31.620Z,1016.96
2016-09-07T06:08:31.603Z,1016.97
2016-09-07T06:09:31.591Z,1017
2016-09-07T06:10:31.572Z,1016.96
2016-09-07T06:11:31.559Z,1016.95
2016-09-07T06:12:31.541Z,1016.93
2016-09-07T06:13:31.527Z,1016.96
2016-09-07T06:14:31.513Z,1016.94
2016-09-07T06:15:31.496Z,1016.98
2016-09-07T06:16:31.484Z,1016.94
2016-09-07T06:17:31.471Z,1016.98
2016-09-07T06:18:31.459Z,1016.93
2016-09-07T06:19:31.441Z,1016.91
2016-09-07T06:20:31.432Z,1016.94
2016-09-07T06:21:31.416Z,1016.96
2016-09-07T06:22:31.394Z,1016.95
2016-09-07T06:23:31.380Z,1016.98
2016-09-07T06:24:31.374Z,1017.03
2016-09-07T06:25:31.357Z,1017.02
2016-09-07T06:26:31.348Z,1016.99
2016-09-07T06:27:31.329Z,1017.05
2016-09-07T06:28:31.318Z,1017.01
2016-09-07T06:29:31.297Z,1017.03
2016-09-07T06:30:31.291Z,1016.98
2016-09-07T06:31:31.268Z,1016.99
2016-09-07T06:32:31.256Z,1016.98
2016-09-07T06:33:31.241Z,1017
2016-09-07T06:34:31.230Z,1016.98
2016-09-07T06:35:31.226Z,1016.97
2016-09-07T06:36:31.199Z,1016.95
2016-09-07T06:37:31.191Z,1016.94
2016-09-07T06:38:31.169Z,1016.93
2016-09-07T06:39:31.170Z,1016.94
2016-09-07T06:40:31.151Z,1016.95
2016-09-07T06:41:31.130Z,1016.99
2016-09-07T06:42:31.121Z,1017.01
2016-09-07T06:43:31.102Z,1017.02
2016-09-07T06:44:31.085Z,1016.99
2016-09-07T06:45:31.331Z,1016.98
2016-09-07T06:46:31.056Z,1016.98
2016-09-07T06:47:31.042Z,1016.95
2016-09-07T06:48:31.032Z,1016.96
2016-09-07T06:49:31.019Z,1016.93
2016-09-07T06:50:31.009Z,1016.95
2016-09-07T06:51:30.989Z,1016.94
2016-09-07T06:52:30.979Z,1016.94
2016-09-07T06:53:30.962Z,1016.91
2016-09-07T06:54:30.951Z,1016.91
2016-09-07T06:55:30.940Z,1016.94
2016-09-07T06:56:30.930Z,1016.96
2016-09-07T06:57:30.911Z,1016.93
2016-09-07T06:58:30.899Z,1016.9
2016-09-07T06:59:30.886Z,1016.94
2016-09-07T07:00:30.871Z,1016.9
2016-09-07T07:01:30.855Z,1016.92
2016-09-07T07:02:30.849Z,1016.92
2016-09-07T07:03:30.840Z,1016.93
2016-09-07T07:04:30.817Z,1016.98
2016-09-07T07:05:30.814Z,1016.97
2016-09-07T07:06:30.803Z,1016.97
2016-09-07T07:07:30.790Z,1017.01
2016-09-07T07:08:30.777Z,1016.98
2016-09-07T07:09:30.763Z,1017.03
2016-09-07T07:10:30.763Z,1017
2016-09-07T07:11:30.740Z,1017.02
2016-09-07T07:12:30.739Z,1017.06
2016-09-07T07:13:30.723Z,1017.03
2016-09-07T07:14:30.711Z,1017.04
2016-09-07T07:15:30.704Z,1017.04
2016-09-07T07:16:30.693Z,1017.05
2016-09-07T07:17:30.691Z,1017.12
2016-09-07T07:18:30.677Z,1017.16
2016-09-07T07:19:30.667Z,1017.15
2016-09-07T07:20:30.660Z,1017.16
2016-09-07T07:21:30.650Z,1017.17
2016-09-07T07:22:30.640Z,1017.13
2016-09-07T07:23:30.623Z,1017.1
2016-09-07T07:24:30.609Z,1017.08
2016-09-07T07:25:30.607Z,1017.09
2016-09-07T07:26:30.599Z,1017.16
2016-09-07T07:27:30.588Z,1017.15
2016-09-07T07:28:30.575Z,1017.19
2016-09-07T07:29:30.712Z,1017.2
2016-09-07T07:30:30.559Z,1017.22
2016-09-07T07:31:30.550Z,1017.22
2016-09-07T07:32:30.537Z,1017.21
2016-09-07T07:33:30.538Z,1017.22
2016-09-07T07:34:30.523Z,1017.25
2016-09-07T07:35:30.531Z,1017.25
2016-09-07T07:36:30.509Z,1017.28
2016-09-07T07:37:30.507Z,1017.28
2016-09-07T07:38:30.488Z,1017.28
2016-09-07T07:39:30.539Z,1017.33
2016-09-07T07:40:30.485Z,1017.25
2016-09-07T07:41:30.477Z,1017.26
2016-09-07T07:42:30.469Z,1017.21
2016-09-07T07:43:30.472Z,1017.2
2016-09-07T07:44:30.460Z,1017.18
2016-09-07T07:45:30.455Z,1017.14
2016-09-07T07:46:30.450Z,1017.15
2016-09-07T07:47:30.447Z,1017.23
2016-09-07T07:48:30.437Z,1017.24
2016-09-07T07:49:30.439Z,1017.2
2016-09-07T07:50:30.425Z,1017.19
2016-09-07T07:51:30.423Z,1017.17
2016-09-07T07:52:30.435Z,1017.12
2016-09-07T07:53:30.416Z,1017.19
2016-09-07T07:54:30.410Z,1017.14
2016-09-07T07:55:30.417Z,1017.17
2016-09-07T07:56:30.407Z,1017.19
2016-09-07T07:57:30.401Z,1017.13
2016-09-07T07:58:30.413Z,1017.13
2016-09-07T07:59:30.406Z,1017.13
2016-09-07T08:00:30.399Z,1017.09
2016-09-07T08:01:30.394Z,1017.08
2016-09-07T08:02:30.394Z,1017.08
2016-09-07T08:03:30.395Z,1017.08
2016-09-07T08:04:30.448Z,1017.05
2016-09-07T08:05:30.388Z,1017.09
2016-09-07T08:06:30.396Z,1017.07
2016-09-07T08:07:30.385Z,1017.06
2016-09-07T08:08:30.387Z,1016.98
2016-09-07T08:09:30.382Z,1016.99
2016-09-07T08:10:30.388Z,1017.06
2016-09-07T08:11:30.380Z,1017.14
2016-09-07T08:12:30.378Z,1017.09
2016-09-07T08:13:30.379Z,1017.06
2016-09-07T08:14:30.379Z,1017.09
2016-09-07T08:15:30.373Z,1017.07
2016-09-07T08:16:30.376Z,1017.06
2016-09-07T08:17:30.370Z,1017.06
2016-09-07T08:18:30.367Z,1017
2016-09-07T08:19:30.364Z,1017.01
2016-09-07T08:20:30.365Z,1017.06
2016-09-07T08:21:30.368Z,1017.07
2016-09-07T08:22:30.366Z,1017.03
2016-09-07T08:23:30.366Z,1016.99
2016-09-07T08:24:30.370Z,1016.94
2016-09-07T08:25:30.367Z,1016.97
2016-09-07T08:26:30.375Z,1016.99
2016-09-07T08:27:30.369Z,1016.99
2016-09-07T08:28:30.369Z,1017.02
2016-09-07T08:29:30.368Z,1016.99
2016-09-07T08:30:30.367Z,1016.99
2016-09-07T08:31:30.371Z,1016.96
2016-09-07T08:32:30.369Z,1016.95
2016-09-07T08:33:30.370Z,1016.97
2016-09-07T08:34:30.376Z,1016.96
2016-09-07T08:35:30.370Z,1016.95
2016-09-07T08:36:30.375Z,1016.96
2016-09-07T08:37:30.372Z,1016.94
2016-09-07T08:38:30.377Z,1016.97
2016-09-07T08:39:30.379Z,1016.95
2016-09-07T08:40:30.379Z,1016.96
2016-09-07T08:41:30.378Z,1016.98
2016-09-07T08:42:30.386Z,1016.96
2016-09-07T08:43:30.389Z,1016.99
2016-09-07T08:44:30.389Z,1016.96
2016-09-07T08:45:30.386Z,1016.99
2016-09-07T08:46:30.394Z,1017
2016-09-07T08:47:30.393Z,1016.96
2016-09-07T08:48:30.395Z,1017.04
2016-09-07T08:49:30.393Z,1017.03
2016-09-07T08:50:30.399Z,1017.03
2016-09-07T08:51:30.399Z,1017.04
2016-09-07T08:52:30.406Z,1017.04
2016-09-07T08:53:30.408Z,1017.04
2016-09-07T08:54:30.419Z,1017.05
2016-09-07T08:55:30.417Z,1017.01
2016-09-07T08:56:30.434Z,1017.01
2016-09-07T08:57:30.419Z,1016.98
2016-09-07T08:58:30.422Z,1016.91
2016-09-07T08:59:30.426Z,1016.9
2016-09-07T09:00:30.429Z,1016.89
2016-09-07T09:01:30.434Z,1016.9
2016-09-07T09:02:30.437Z,1016.94
2016-09-07T09:03:30.438Z,1016.93
2016-09-07T09:04:30.445Z,1016.91
2016-09-07T09:05:30.443Z,1016.93
2016-09-07T09:06:30.449Z,1016.9
2016-09-07T09:07:30.453Z,1016.89
2016-09-07T09:08:30.456Z,1016.84
2016-09-07T09:09:30.462Z,1016.86
2016-09-07T09:10:30.469Z,1016.81
2016-09-07T09:11:30.470Z,1016.8
2016-09-07T09:12:30.471Z,1016.78
2016-09-07T09:13:30.476Z,1016.75
2016-09-07T09:14:30.476Z,1016.74
2016-09-07T09:15:30.488Z,1016.71
2016-09-07T09:16:30.489Z,1016.69
2016-09-07T09:17:30.493Z,1016.68
2016-09-07T09:18:30.495Z,1016.67
2016-09-07T09:19:30.542Z,1016.65
2016-09-07T09:20:30.498Z,1016.6
2016-09-07T09:21:30.503Z,1016.6
2016-09-07T09:22:30.509Z,1016.55
2016-09-07T09:23:30.509Z,1016.56
2016-09-07T09:24:30.508Z,1016.58
2016-09-07T09:25:30.513Z,1016.58
2016-09-07T09:26:30.515Z,1016.53
2016-09-07T09:27:30.520Z,1016.55
2016-09-07T09:28:30.529Z,1016.54
2016-09-07T09:29:30.528Z,1016.5
2016-09-07T09:30:30.538Z,1016.53
2016-09-07T09:31:30.544Z,1016.49
2016-09-07T09:32:30.537Z,1016.48
2016-09-07T09:33:30.542Z,1016.42
2016-09-07T09:34:30.546Z,1016.44
2016-09-07T09:35:30.545Z,1016.44
2016-09-07T09:36:30.562Z,1016.44
2016-09-07T09:37:30.557Z,1016.4
2016-09-07T09:38:30.558Z,1016.4
2016-09-07T09:39:30.564Z,1016.36
2016-09-07T09:40:30.565Z,1016.37
2016-09-07T09:41:30.566Z,1016.37
2016-09-07T09:42:30.573Z,1016.36
2016-09-07T09:43:30.579Z,1016.36
2016-09-07T09:44:30.584Z,1016.39
2016-09-07T09:45:30.583Z,1016.37
2016-09-07T09:46:30.585Z,1016.35
2016-09-07T09:47:30.593Z,1016.31
2016-09-07T09:48:30.590Z,1016.31
2016-09-07T09:49:30.597Z,1016.3
2016-09-07T09:50:30.596Z,1016.26
2016-09-07T09:51:30.595Z,1016.22
2016-09-07T09:52:30.599Z,1016.22
2016-09-07T09:53:30.599Z,1016.17
2016-09-07T09:54:30.609Z,1016.19
2016-09-07T09:55:30.604Z,1016.16
2016-09-07T09:56:30.611Z,1016.14
2016-09-07T09:57:30.615Z,1016.11
2016-09-07T09:58:30.618Z,1016.12
2016-09-07T09:59:30.617Z,1016.14
2016-09-07T10:00:30.616Z,1016.12
2016-09-07T10:01:30.620Z,1016.1
2016-09-07T10:02:30.622Z,1016.13
2016-09-07T10:03:30.629Z,1016.1
2016-09-07T10:04:30.623Z,1016.09
2016-09-07T10:05:30.625Z,1016.1
2016-09-07T10:06:30.629Z,1016.09
2016-09-07T10:07:30.636Z,1016.05
2016-09-07T10:08:30.638Z,1016.03
2016-09-07T10:09:30.634Z,1016
2016-09-07T10:10:30.632Z,1016
2016-09-07T10:11:30.639Z,1015.96
2016-09-07T10:12:30.638Z,1015.94
2016-09-07T10:13:30.638Z,1015.94
2016-09-07T10:14:30.641Z,1015.96
2016-09-07T10:15:30.637Z,1015.92
2016-09-07T10:16:30.638Z,1015.87
2016-09-07T10:17:30.632Z,1015.88
2016-09-07T10:18:30.635Z,1015.88
2016-09-07T10:19:30.631Z,1015.88
2016-09-07T10:20:30.639Z,1015.87
2016-09-07T10:21:30.634Z,1015.86
2016-09-07T10:22:30.630Z,1015.86
2016-09-07T10:23:30.636Z,1015.89
2016-09-07T10:24:30.637Z,1015.88
2016-09-07T10:25:30.632Z,1015.84
2016-09-07T10:26:30.637Z,1015.78
2016-09-07T10:27:30.625Z,1015.81
2016-09-07T10:28:30.629Z,1015.79
2016-09-07T10:29:30.625Z,1015.77
2016-09-07T10:30:30.626Z,1015.74
2016-09-07T10:31:30.626Z,1015.69
2016-09-07T10:32:30.625Z,1015.7
2016-09-07T10:33:30.628Z,1015.67
2016-09-07T10:34:30.620Z,1015.62
2016-09-07T10:35:30.619Z,1015.6
2016-09-07T10:36:30.618Z,1015.61
2016-09-07T10:37:30.613Z,1015.59
2016-09-07T10:38:30.611Z,1015.63
2016-09-07T10:39:30.605Z,1015.61
2016-09-07T10:40:30.608Z,1015.6
2016-09-07T10:41:30.602Z,1015.57
2016-09-07T10:42:30.601Z,1015.6
2016-09-07T10:43:30.599Z,1015.58
2016-09-07T10:44:30.598Z,1015.55
2016-09-07T10:45:30.590Z,1015.56
2016-09-07T10:46:30.596Z,1015.53
2016-09-07T10:47:30.586Z,1015.49
2016-09-07T10:48:30.584Z,1015.55
2016-09-07T10:49:30.582Z,1015.52
2016-09-07T10:50:30.583Z,1015.53
2016-09-07T10:51:30.578Z,1015.54
2016-09-07T10:52:30.573Z,1015.52
2016-09-07T10:53:30.571Z,1015.5
2016-09-07T10:54:30.591Z,1015.53
2016-09-07T10:55:30.615Z,1015.48
2016-09-07T10:56:30.565Z,1015.47
2016-09-07T10:57:30.562Z,1015.48
2016-09-07T10:58:30.562Z,1015.45
2016-09-07T10:59:30.558Z,1015.42
2016-09-07T11:00:30.558Z,1015.41
2016-09-07T11:01:30.552Z,1015.4
2016-09-07T11:02:30.548Z,1015.42
2016-09-07T11:03:30.558Z,1015.38
2016-09-07T11:04:30.546Z,1015.36
2016-09-07T11:05:30.539Z,1015.37
2016-09-07T11:06:30.539Z,1015.33
2016-09-07T11:07:30.546Z,1015.27
2016-09-07T11:08:30.537Z,1015.29
2016-09-07T11:09:30.538Z,1015.27
2016-09-07T11:10:30.528Z,1015.23
2016-09-07T11:11:30.525Z,1015.24
2016-09-07T11:12:30.529Z,1015.24
2016-09-07T11:13:30.516Z,1015.26
2016-09-07T11:14:30.512Z,1015.24
2016-09-07T11:15:30.516Z,1015.23
2016-09-07T11:16:30.515Z,1015.28
2016-09-07T11:17:30.511Z,1015.24
2016-09-07T11:18:30.505Z,1015.26
2016-09-07T11:19:30.508Z,1015.23
2016-09-07T11:20:30.507Z,1015.22
2016-09-07T11:21:30.495Z,1015.2
2016-09-07T11:22:30.499Z,1015.19
2016-09-07T11:23:30.496Z,1015.16
2016-09-07T11:24:30.494Z,1015.17
2016-09-07T11:25:30.485Z,1015.23
2016-09-07T11:26:30.487Z,1015.22
2016-09-07T11:27:30.487Z,1015.19
2016-09-07T11:28:30.477Z,1015.18
2016-09-07T11:29:30.473Z,1015.17
2016-09-07T11:30:30.473Z,1015.11
2016-09-07T11:31:30.477Z,1015.12
2016-09-07T11:32:30.477Z,1015.14
2016-09-07T11:33:30.468Z,1015.09
2016-09-07T11:34:30.467Z,1015.09
2016-09-07T11:35:30.456Z,1015.05
2016-09-07T11:36:30.453Z,1015.02
2016-09-07T11:37:30.453Z,1015.06
2016-09-07T11:38:30.446Z,1015.06
2016-09-07T11:39:30.448Z,1015
2016-09-07T11:40:30.443Z,1014.95
2016-09-07T11:41:30.435Z,1014.95
2016-09-07T11:42:30.437Z,1014.91
2016-09-07T11:43:30.431Z,1014.85
2016-09-07T11:44:30.436Z,1014.87
2016-09-07T11:45:30.426Z,1014.81
2016-09-07T11:46:30.426Z,1014.84
2016-09-07T11:47:30.422Z,1014.8
2016-09-07T11:48:30.428Z,1014.84
2016-09-07T11:49:30.459Z,1014.84
2016-09-07T11:50:30.419Z,1014.79
2016-09-07T11:51:30.415Z,1014.82
2016-09-07T11:52:30.420Z,1014.77
2016-09-07T11:53:30.407Z,1014.73
2016-09-07T11:54:30.398Z,1014.75
2016-09-07T11:55:30.397Z,1014.77
2016-09-07T11:56:30.394Z,1014.71
2016-09-07T11:57:30.397Z,1014.69
2016-09-07T11:58:30.386Z,1014.7
2016-09-07T11:59:30.387Z,1014.7
2016-09-07T12:00:30.386Z,1014.67
2016-09-07T12:01:30.377Z,1014.66
2016-09-07T12:02:30.373Z,1014.63
2016-09-07T12:03:30.376Z,1014.63
2016-09-07T12:04:30.372Z,1014.66
2016-09-07T12:05:30.370Z,1014.61
2016-09-07T12:06:30.368Z,1014.63
2016-09-07T12:07:30.365Z,1014.64
2016-09-07T12:08:30.366Z,1014.55